Time;durP1;ratioP1;P1;durP2;ratioP2;P2;SDS_P1;SDS_P2;PMS_P1;PMS_P2;Temp;Humidity;BMP_temperature;BMP_pressure;BME280_temperature;BME280_humidity;BME280_pressure;Samples;Min_cycle;Max_cycle;Signal;HPM_P1;HPM_P2
2024/04/19 00:01:04;;;;;;;1.70;1.00;;;20.00;59.90;;;;;;5384420;26;20221;-92
2024/04/19 00:03:32;;;;;;;1.70;1.00;;;20.00;59.90;;;;;;5384589;26;20573;-92
2024/04/19 00:06:01;;;;;;;1.97;0.90;;;20.00;59.90;;;;;;5384523;26;20464;-91
2024/04/19 00:08:29;;;;;;;1.70;1.00;;;20.00;59.90;;;;;;5383809;26;20535;-92
2024/04/19 00:10:55;;;;;;;1.70;0.70;;;19.90;59.80;;;;;;5384491;26;20496;-91
2024/04/19 00:13:25;;;;;;;1.77;0.80;;;20.00;59.90;;;;;;5384181;26;20785;-91
2024/04/19 00:15:51;;;;;;;1.80;1.00;;;19.90;59.80;;;;;;5383400;26;20218;-92
2024/04/19 00:18:19;;;;;;;1.60;0.80;;;20.00;59.90;;;;;;5384175;26;20566;-92
2024/04/19 00:20:45;;;;;;;1.70;1.00;;;20.00;59.90;;;;;;5384440;26;20498;-92
2024/04/19 00:23:16;;;;;;;1.70;1.00;;;19.90;59.80;;;;;;5383664;26;20613;-92
2024/04/19 00:25:42;;;;;;;2.03;1.00;;;20.00;59.90;;;;;;5384323;26;20455;-91
2024/04/19 00:28:11;;;;;;;1.90;1.00;;;20.00;59.80;;;;;;5384820;26;20447;-91
2024/04/19 00:30:36;;;;;;;1.80;0.90;;;20.10;60.00;;;;;;5384850;26;20214;-92
2024/04/19 00:33:05;;;;;;;1.60;0.80;;;20.00;59.90;;;;;;5384519;26;20494;-91
2024/04/19 00:35:31;;;;;;;1.60;1.00;;;19.90;59.80;;;;;;5384483;26;20479;-92
2024/04/19 00:37:59;;;;;;;1.87;0.97;;;20.00;59.90;;;;;;5384400;26;20443;-92
2024/04/19 00:40:28;;;;;;;1.70;0.80;;;19.90;59.80;;;;;;5384555;26;20264;-92
2024/04/19 00:42:58;;;;;;;2.90;1.00;;;20.00;59.80;;;;;;5383690;26;20464;-92
2024/04/19 00:45:31;;;;;;;1.60;0.90;;;20.00;59.80;;;;;;5384573;26;20459;-91
2024/04/19 00:48:01;;;;;;;1.50;0.97;;;20.00;59.90;;;;;;5384242;26;20939;-90
2024/04/19 00:50:30;;;;;;;2.00;1.00;;;20.00;59.90;;;;;;5387677;26;20436;-92
2024/04/19 00:52:58;;;;;;;1.70;0.80;;;20.00;59.80;;;;;;5406573;26;20456;-91
2024/04/19 00:55:25;;;;;;;1.50;0.80;;;20.00;59.90;;;;;;5402895;26;20444;-92
2024/04/19 00:57:57;;;;;;;1.60;0.93;;;19.90;59.80;;;;;;5384025;26;20448;-92
2024/04/19 01:00:25;;;;;;;1.60;1.00;;;20.00;59.90;;;;;;5383953;26;20451;-92
2024/04/19 01:02:55;;;;;;;1.60;0.87;;;19.90;59.80;;;;;;5384182;26;20451;-92
2024/04/19 01:05:22;;;;;;;2.13;1.00;;;20.00;59.90;;;;;;5383599;26;20514;-92
2024/04/19 01:07:51;;;;;;;1.70;1.00;;;20.00;59.80;;;;;;5383683;26;20460;-91
2024/04/19 01:10:18;;;;;;;2.00;1.10;;;19.90;59.80;;;;;;5383568;26;20452;-91
2024/04/19 01:12:47;;;;;;;1.60;0.90;;;19.90;59.80;;;;;;5383712;26;20492;-92
2024/04/19 01:15:20;;;;;;;1.50;0.83;;;19.90;59.80;;;;;;5383661;26;20447;-91
2024/04/19 01:17:49;;;;;;;1.57;1.00;;;19.90;59.80;;;;;;5383805;26;20957;-92
2024/04/19 01:20:15;;;;;;;4.07;0.90;;;19.90;59.80;;;;;;5383082;26;20456;-92
2024/04/19 01:22:45;;;;;;;1.60;0.90;;;19.90;59.80;;;;;;5383103;26;20463;-91
2024/04/19 01:25:15;;;;;;;1.57;0.80;;;19.90;59.80;;;;;;5382273;26;20958;-91
2024/04/19 01:27:47;;;;;;;2.00;0.90;;;19.90;59.80;;;;;;5383703;26;20499;-91
2024/04/19 01:30:12;;;;;;;1.77;1.00;;;19.90;59.80;;;;;;5383115;26;20440;-91
2024/04/19 01:32:41;;;;;;;1.57;0.90;;;20.00;59.90;;;;;;5383446;26;20494;-91
2024/04/19 01:35:07;;;;;;;1.60;0.90;;;19.90;59.80;;;;;;5383877;26;20265;-91
2024/04/19 01:37:35;;;;;;;1.50;0.90;;;19.90;60.50;;;;;;5383019;26;20452;-92
2024/04/19 01:40:01;;;;;;;1.50;0.90;;;19.90;59.80;;;;;;5383165;26;20747;-91
2024/04/19 01:42:29;;;;;;;1.53;0.97;;;19.90;59.80;;;;;;5382581;26;20479;-91
2024/04/19 01:44:58;;;;;;;2.20;1.00;;;19.90;59.80;;;;;;5382758;26;20248;-91
2024/04/19 01:47:28;;;;;;;1.50;0.87;;;19.90;59.80;;;;;;5383320;26;20459;-91
2024/04/19 01:49:53;;;;;;;2.23;0.90;;;19.90;59.80;;;;;;5382960;26;20837;-91
2024/04/19 01:52:22;;;;;;;1.40;0.70;;;19.90;59.80;;;;;;5382699;26;20530;-92
2024/04/19 01:54:48;;;;;;;1.50;0.80;;;19.90;59.80;;;;;;5383404;26;20217;-91
2024/04/19 01:57:16;;;;;;;1.70;0.87;;;19.90;59.80;;;;;;5383223;26;20516;-92
2024/04/19 01:59:42;;;;;;;1.57;0.80;;;19.90;59.80;;;;;;5382782;26;20451;-90
2024/04/19 02:02:13;;;;;;;1.50;0.80;;;19.90;59.80;;;;;;5382921;26;20506;-91
2024/04/19 02:04:39;;;;;;;1.60;0.80;;;19.90;59.80;;;;;;5382577;26;20230;-91
2024/04/19 02:10:32;;;;;;;2.10;0.83;;;19.90;59.80;;;;;;5385537;26;20530;-92
2024/04/19 02:13:00;;;;;;;1.47;0.70;;;19.90;59.90;;;;;;5382577;26;20460;-91
2024/04/19 02:15:26;;;;;;;1.50;0.90;;;19.90;59.90;;;;;;5400515;26;20498;-91
2024/04/19 02:17:57;;;;;;;1.87;0.80;;;19.90;59.80;;;;;;5399042;26;20575;-91
2024/04/19 02:20:23;;;;;;;2.03;0.83;;;19.90;59.80;;;;;;5405020;26;20346;-90
2024/04/19 02:22:52;;;;;;;1.60;0.90;;;19.90;59.80;;;;;;5397614;26;20445;-91
2024/04/19 02:25:18;;;;;;;1.53;0.80;;;19.90;59.80;;;;;;5387997;26;20531;-92
2024/04/19 02:33:17;;;;;;;1.43;0.70;;;20.00;59.90;;;;;;5385202;26;20854;-91
2024/04/19 02:35:47;;;;;;;1.50;0.87;;;19.90;59.90;;;;;;5382253;26;20516;-91
2024/04/19 02:38:13;;;;;;;1.80;1.07;;;19.90;59.80;;;;;;5383804;26;20504;-91
2024/04/19 02:40:41;;;;;;;1.70;1.00;;;19.90;59.80;;;;;;5385361;26;20824;-91
2024/04/19 02:43:10;;;;;;;1.70;0.80;;;19.90;59.80;;;;;;5385882;26;20529;-92
2024/04/19 02:45:41;;;;;;;1.80;0.80;;;20.00;59.90;;;;;;5385910;26;21006;-91
2024/04/19 02:48:10;;;;;;;1.50;0.77;;;19.80;59.70;;;;;;5385556;26;20498;-92
2024/04/19 02:50:41;;;;;;;2.17;1.10;;;19.90;59.80;;;;;;5385856;26;20494;-91
2024/04/19 02:53:09;;;;;;;1.50;0.87;;;19.90;59.80;;;;;;5385461;26;20487;-92
2024/04/19 02:55:38;;;;;;;1.60;0.83;;;19.90;59.80;;;;;;5385608;26;20958;-91
2024/04/19 02:58:06;;;;;;;2.50;0.87;;;20.00;59.90;;;;;;5385431;26;20460;-91
2024/04/19 03:00:36;;;;;;;2.13;0.80;;;20.00;59.90;;;;;;5385407;26;20460;-92
2024/04/19 03:03:05;;;;;;;1.90;0.80;;;19.90;59.90;;;;;;5385523;26;21081;-92
2024/04/19 03:05:33;;;;;;;1.50;0.80;;;19.90;59.90;;;;;;5385177;26;20899;-91
2024/04/19 03:08:05;;;;;;;1.83;1.00;;;19.90;59.90;;;;;;5385733;26;20440;-91
2024/04/19 03:10:34;;;;;;;1.50;0.90;;;19.90;59.90;;;;;;5385353;26;20998;-92
2024/04/19 03:13:02;;;;;;;1.97;0.90;;;19.90;59.90;;;;;;5385642;26;20459;-92
2024/04/19 03:15:30;;;;;;;1.60;0.83;;;19.90;59.90;;;;;;5385708;26;20879;-91
2024/04/19 03:17:59;;;;;;;1.63;1.10;;;19.90;59.80;;;;;;5385615;26;20447;-92
2024/04/19 03:20:27;;;;;;;1.43;0.80;;;20.00;59.90;;;;;;5385575;26;20494;-92
2024/04/19 03:22:56;;;;;;;1.50;0.70;;;19.90;59.80;;;;;;5385612;26;20857;-91
2024/04/19 03:25:27;;;;;;;1.60;0.90;;;19.90;59.80;;;;;;5385418;26;20455;-91
2024/04/19 03:27:56;;;;;;;1.73;0.87;;;20.00;59.90;;;;;;5385644;26;20492;-91
2024/04/19 03:30:29;;;;;;;2.13;0.93;;;19.90;59.90;;;;;;5385269;26;20488;-91
2024/04/19 03:32:58;;;;;;;1.50;0.77;;;19.90;59.90;;;;;;5385474;26;20439;-92
2024/04/19 03:35:27;;;;;;;1.97;0.87;;;20.10;60.00;;;;;;5385338;26;20571;-92
2024/04/19 03:37:55;;;;;;;1.50;0.80;;;19.90;59.90;;;;;;5385232;26;20897;-91
2024/04/19 03:40:26;;;;;;;2.47;1.10;;;19.90;59.80;;;;;;5385112;26;20919;-91
2024/04/19 03:42:58;;;;;;;1.70;0.80;;;20.00;59.90;;;;;;5385561;26;21018;-91
2024/04/19 03:45:44;;;;;;;1.40;0.70;;;19.90;59.80;;;;;;5395149;26;20507;-92
2024/04/19 03:48:14;;;;;;;1.70;1.00;;;20.00;59.90;;;;;;5407642;26;20424;-90
2024/04/19 03:50:46;;;;;;;1.50;0.80;;;19.90;59.80;;;;;;5394512;26;20554;-92
2024/04/19 03:53:14;;;;;;;1.70;0.90;;;19.90;59.90;;;;;;5384532;26;20584;-91
2024/04/19 03:55:45;;;;;;;1.60;0.90;;;20.00;59.90;;;;;;5384797;26;20498;-91
2024/04/19 03:58:14;;;;;;;1.80;0.80;;;19.90;59.90;;;;;;5384858;26;20447;-91
2024/04/19 04:00:40;;;;;;;1.60;1.00;;;19.90;59.80;;;;;;5384558;26;21030;-91
2024/04/19 04:03:08;;;;;;;1.63;0.90;;;19.90;59.90;;;;;;5384815;26;20452;-91
2024/04/19 04:05:37;;;;;;;2.00;0.90;;;20.00;59.90;;;;;;5384585;26;20225;-91
2024/04/19 04:08:06;;;;;;;1.50;0.80;;;19.90;59.90;;;;;;5384869;26;20439;-91
2024/04/19 04:10:35;;;;;;;1.60;0.90;;;19.90;59.90;;;;;;5384564;26;20523;-91
2024/04/19 04:13:06;;;;;;;1.50;0.80;;;19.90;59.90;;;;;;5383910;26;20867;-92
2024/04/19 04:15:35;;;;;;;2.63;0.87;;;19.90;59.90;;;;;;5384975;26;20440;-92
2024/04/19 04:18:05;;;;;;;2.40;1.00;;;19.90;59.90;;;;;;5384588;26;20567;-92
2024/04/19 04:20:33;;;;;;;1.50;0.80;;;19.80;59.80;;;;;;5384261;26;20815;-91
2024/04/19 04:23:02;;;;;;;1.70;0.90;;;19.90;60.60;;;;;;5384413;26;20452;-91
2024/04/19 04:25:30;;;;;;;1.60;1.00;;;19.90;59.90;;;;;;5384638;26;20444;-91
2024/04/19 04:27:59;;;;;;;1.50;0.70;;;20.00;59.90;;;;;;5384328;26;20575;-92
2024/04/19 04:30:30;;;;;;;1.50;0.80;;;19.90;59.90;;;;;;5384499;26;20455;-91
2024/04/19 04:32:58;;;;;;;1.50;0.87;;;19.90;59.90;;;;;;5386714;26;20950;-91
2024/04/19 04:35:27;;;;;;;2.10;0.80;;;20.00;59.90;;;;;;5384689;26;20475;-91
2024/04/19 04:37:55;;;;;;;1.60;0.80;;;19.90;59.90;;;;;;5384860;26;20923;-91
2024/04/19 04:40:24;;;;;;;1.50;0.80;;;19.90;59.80;;;;;;5386202;26;20459;-92
2024/04/19 04:42:52;;;;;;;1.60;0.83;;;20.00;60.00;;;;;;5388954;26;20451;-91
2024/04/19 04:45:25;;;;;;;1.70;0.83;;;19.80;59.80;;;;;;5385768;26;20578;-92
2024/04/19 04:47:56;;;;;;;1.40;0.70;;;19.90;59.90;;;;;;5389451;26;20503;-92
2024/04/19 04:50:25;;;;;;;1.83;1.00;;;20.00;59.90;;;;;;5386491;26;20484;-92
2024/04/19 04:52:56;;;;;;;1.70;0.87;;;19.80;59.80;;;;;;5388531;26;20511;-91
2024/04/19 04:55:24;;;;;;;1.50;0.80;;;19.90;59.90;;;;;;5384638;26;20496;-92
2024/04/19 04:57:53;;;;;;;1.60;0.80;;;19.90;59.90;;;;;;5385982;26;20967;-92
2024/04/19 05:00:21;;;;;;;1.60;0.70;;;19.90;59.80;;;;;;5382576;26;20448;-91
2024/04/19 05:02:50;;;;;;;1.50;0.90;;;19.90;59.90;;;;;;5383648;26;20553;-92
2024/04/19 05:05:22;;;;;;;4.73;0.87;;;19.90;59.90;;;;;;5383703;26;20502;-91
2024/04/19 05:07:50;;;;;;;1.50;0.80;;;19.90;59.90;;;;;;5386153;26;20459;-92
2024/04/19 05:10:20;;;;;;;1.50;0.80;;;19.80;59.80;;;;;;5383320;26;20562;-90
2024/04/19 05:12:48;;;;;;;1.80;0.80;;;19.90;59.90;;;;;;5385264;26;21096;-92
2024/04/19 05:15:17;;;;;;;1.50;0.80;;;19.80;59.70;;;;;;5383991;26;20459;-92
2024/04/19 05:17:45;;;;;;;1.70;0.90;;;19.90;59.90;;;;;;5383240;26;20863;-92
2024/04/19 05:20:14;;;;;;;1.70;0.90;;;19.90;59.90;;;;;;5383337;26;20550;-92
2024/04/19 05:22:45;;;;;;;1.50;0.80;;;19.90;59.90;;;;;;5383074;26;21056;-92
2024/04/19 05:25:13;;;;;;;1.43;0.80;;;19.80;60.50;;;;;;5383375;26;20492;-92
2024/04/19 05:27:42;;;;;;;1.50;0.80;;;19.80;59.80;;;;;;5383589;26;20547;-91
2024/04/19 05:30:13;;;;;;;1.40;0.80;;;19.90;59.90;;;;;;5383362;26;20459;-92
2024/04/19 05:32:41;;;;;;;1.50;0.80;;;19.80;59.80;;;;;;5383292;26;20950;-92
2024/04/19 05:35:09;;;;;;;2.10;0.77;;;19.80;59.80;;;;;;5382939;26;20576;-92
2024/04/19 05:37:38;;;;;;;1.70;0.97;;;19.80;59.80;;;;;;5383077;26;20440;-93
2024/04/19 05:40:10;;;;;;;2.50;1.07;;;19.80;59.80;;;;;;5383135;26;20447;-92
2024/04/19 05:42:38;;;;;;;1.60;0.90;;;19.80;59.80;;;;;;5383682;26;20544;-92
2024/04/19 05:45:08;;;;;;;1.80;1.10;;;19.80;59.80;;;;;;5383191;26;20455;-93
2024/04/19 05:47:36;;;;;;;1.43;0.80;;;19.80;59.80;;;;;;5382649;26;20527;-92
2024/04/19 05:50:05;;;;;;;1.60;0.90;;;19.80;60.60;;;;;;5383223;26;20537;-91
2024/04/19 05:52:33;;;;;;;1.50;0.80;;;19.90;59.90;;;;;;5383083;26;20464;-91
2024/04/19 05:55:02;;;;;;;1.60;0.90;;;19.90;59.90;;;;;;5382878;26;20447;-92
2024/04/19 05:57:34;;;;;;;1.70;1.00;;;19.90;59.90;;;;;;5382745;26;20998;-92
2024/04/19 06:00:03;;;;;;;1.43;0.70;;;19.90;59.90;;;;;;5382720;26;20490;-92
2024/04/19 06:02:32;;;;;;;1.90;1.00;;;19.80;59.80;;;;;;5382916;26;20860;-91
2024/04/19 06:05:00;;;;;;;1.57;0.80;;;19.80;59.80;;;;;;5382946;26;20568;-92
2024/04/19 06:07:29;;;;;;;1.50;0.90;;;19.80;59.80;;;;;;5382527;26;20506;-91
2024/04/19 06:09:57;;;;;;;1.40;0.60;;;19.80;59.80;;;;;;5382157;26;20558;-92
2024/04/19 06:12:25;;;;;;;1.80;0.70;;;19.90;59.90;;;;;;5382830;26;20565;-91
2024/04/19 06:14:56;;;;;;;1.77;0.97;;;19.80;59.80;;;;;;5386133;26;21010;-91
2024/04/19 06:17:25;;;;;;;1.50;0.80;;;19.90;59.90;;;;;;5385764;26;20578;-91
2024/04/19 06:19:53;;;;;;;1.60;0.90;;;19.80;59.80;;;;;;5385766;26;20515;-92
2024/04/19 06:22:22;;;;;;;1.60;0.80;;;19.90;59.90;;;;;;5385728;26;21022;-91
2024/04/19 06:24:51;;;;;;;1.43;0.70;;;19.80;59.80;;;;;;5385885;26;20443;-91
2024/04/19 06:27:19;;;;;;;1.50;0.70;;;19.80;59.80;;;;;;5385931;26;20452;-91
2024/04/19 06:29:48;;;;;;;1.50;0.70;;;19.80;59.80;;;;;;5385896;26;20451;-91
2024/04/19 06:32:19;;;;;;;1.40;0.90;;;19.90;59.90;;;;;;5385689;26;20560;-91
2024/04/19 06:34:51;;;;;;;1.50;0.80;;;19.80;59.80;;;;;;5386183;26;20530;-91
2024/04/19 06:37:20;;;;;;;1.50;0.90;;;19.90;59.90;;;;;;5385892;26;20829;-92
2024/04/19 06:39:48;;;;;;;1.87;1.17;;;19.80;59.80;;;;;;5390233;26;20444;-90
2024/04/19 06:42:17;;;;;;;1.50;0.80;;;19.80;59.80;;;;;;5408712;26;20517;-91
2024/04/19 06:44:45;;;;;;;1.50;0.83;;;19.80;59.80;;;;;;5403102;26;20930;-91
2024/04/19 06:47:14;;;;;;;1.70;0.87;;;19.80;59.80;;;;;;5385592;26;20572;-91
2024/04/19 06:49:45;;;;;;;1.40;0.80;;;19.80;59.80;;;;;;5385746;26;20836;-92
2024/04/19 06:52:14;;;;;;;1.60;0.83;;;19.80;59.80;;;;;;5385221;26;20447;-91
2024/04/19 06:54:42;;;;;;;4.40;1.00;;;19.80;59.80;;;;;;5385523;26;20455;-91
2024/04/19 06:57:11;;;;;;;1.40;0.77;;;19.80;59.80;;;;;;5385543;26;20451;-91
2024/04/19 06:59:39;;;;;;;1.50;0.80;;;19.80;59.80;;;;;;5385345;26;20455;-91
2024/04/19 07:02:08;;;;;;;1.70;0.90;;;19.80;59.80;;;;;;5385337;26;21283;-91
2024/04/19 07:04:36;;;;;;;1.50;0.80;;;19.90;59.90;;;;;;5385058;26;20610;-92
2024/04/19 07:07:07;;;;;;;1.43;0.70;;;19.80;59.90;;;;;;5384900;26;20455;-91
2024/04/19 07:09:36;;;;;;;1.40;0.80;;;19.80;59.90;;;;;;5385281;26;20459;-91
2024/04/19 07:12:05;;;;;;;1.70;0.90;;;19.80;59.90;;;;;;5385141;26;20443;-91
2024/04/19 07:14:33;;;;;;;1.60;1.10;;;19.80;59.90;;;;;;5385122;26;20440;-91
2024/04/19 07:17:02;;;;;;;1.67;0.80;;;19.90;60.00;;;;;;5385056;26;20832;-91
2024/04/19 07:19:30;;;;;;;1.40;0.70;;;19.80;59.90;;;;;;5385173;26;20451;-91
2024/04/19 07:21:59;;;;;;;1.40;0.70;;;19.80;59.90;;;;;;5384678;26;20439;-91
2024/04/19 07:24:30;;;;;;;1.40;0.80;;;19.90;60.00;;;;;;5384459;26;20904;-92
2024/04/19 07:26:58;;;;;;;1.50;0.90;;;19.80;59.90;;;;;;5384995;26;20459;-91
2024/04/19 07:29:26;;;;;;;1.40;0.70;;;19.80;59.90;;;;;;5385121;26;20866;-91
2024/04/19 07:31:55;;;;;;;1.50;0.80;;;19.80;59.90;;;;;;5385878;26;20566;-91
2024/04/19 07:34:25;;;;;;;1.50;0.90;;;19.80;59.90;;;;;;5386163;26;20448;-91
2024/04/19 07:36:53;;;;;;;1.43;0.73;;;19.80;59.90;;;;;;5385600;26;20560;-91
2024/04/19 07:39:22;;;;;;;1.43;0.73;;;19.80;59.90;;;;;;5385171;26;20456;-91
2024/04/19 07:41:55;;;;;;;1.40;0.70;;;19.90;60.00;;;;;;5385745;26;20447;-91
2024/04/19 07:44:24;;;;;;;1.50;0.80;;;19.80;59.90;;;;;;5385501;26;20440;-91
2024/04/19 07:46:52;;;;;;;1.50;0.87;;;19.80;59.90;;;;;;5385622;26;20451;-91
2024/04/19 07:49:21;;;;;;;1.60;1.00;;;19.80;60.70;;;;;;5385504;26;20482;-91
2024/04/19 07:51:49;;;;;;;1.47;0.80;;;19.80;59.90;;;;;;5385125;26;21093;-91
2024/04/19 07:54:18;;;;;;;2.27;0.70;;;19.90;60.00;;;;;;5385110;26;20574;-91
2024/04/19 07:56:46;;;;;;;1.60;0.93;;;19.80;59.90;;;;;;5385107;26;20557;-91
2024/04/19 07:59:18;;;;;;;1.50;0.80;;;19.80;59.90;;;;;;5384973;26;20492;-91
2024/04/19 08:01:46;;;;;;;1.40;0.70;;;19.90;60.00;;;;;;5385042;26;20456;-91
2024/04/19 08:04:15;;;;;;;1.50;0.80;;;19.80;59.90;;;;;;5385096;26;20490;-91
2024/04/19 08:06:43;;;;;;;1.40;0.70;;;19.80;60.00;;;;;;5384758;26;20865;-91
2024/04/19 08:09:12;;;;;;;1.50;0.70;;;19.80;60.00;;;;;;5385025;26;20444;-91
2024/04/19 08:11:40;;;;;;;1.50;0.80;;;19.80;60.00;;;;;;5354293;26;20612;-92
2024/04/19 08:14:09;;;;;;;1.50;0.80;;;19.80;60.00;;;;;;5384886;26;20479;-91
2024/04/19 08:16:41;;;;;;;1.50;0.80;;;19.80;60.00;;;;;;5384629;26;20478;-91
2024/04/19 08:19:11;;;;;;;1.40;0.70;;;19.80;60.00;;;;;;5384608;26;20459;-91
2024/04/19 08:21:39;;;;;;;1.50;0.80;;;19.80;60.00;;;;;;5384715;26;20467;-91
2024/04/19 08:24:08;;;;;;;1.50;0.73;;;19.90;60.10;;;;;;5384746;26;20467;-92
2024/04/19 08:26:36;;;;;;;1.40;0.70;;;19.80;60.00;;;;;;5384841;26;20584;-91
2024/04/19 08:29:05;;;;;;;1.70;0.83;;;19.80;60.00;;;;;;5384766;26;20901;-91
2024/04/19 08:31:34;;;;;;;1.60;0.97;;;19.80;60.00;;;;;;5384637;26;20549;-91
2024/04/19 08:34:05;;;;;;;1.40;0.70;;;19.80;60.00;;;;;;5385239;26;20500;-91
2024/04/19 08:36:33;;;;;;;1.50;0.80;;;19.90;60.10;;;;;;5383224;26;20998;-91
2024/04/19 08:39:02;;;;;;;1.63;0.90;;;19.90;60.90;;;;;;5384945;26;20548;-91
2024/04/19 08:41:33;;;;;;;1.50;0.80;;;19.80;60.00;;;;;;5385006;26;21089;-91
2024/04/19 08:44:02;;;;;;;1.50;0.80;;;19.80;60.00;;;;;;5385066;26;20459;-91
2024/04/19 08:46:32;;;;;;;1.70;0.90;;;19.80;60.00;;;;;;5385205;26;20463;-91
2024/04/19 08:49:05;;;;;;;1.60;0.90;;;19.90;60.10;;;;;;5384444;26;20440;-90
2024/04/19 08:51:34;;;;;;;1.50;0.90;;;19.80;60.00;;;;;;5384690;26;20443;-91
2024/04/19 08:54:03;;;;;;;1.57;0.80;;;19.80;60.00;;;;;;5384631;26;20570;-91
2024/04/19 08:56:32;;;;;;;1.50;0.80;;;19.80;60.00;;;;;;5384879;26;20447;-90
2024/04/19 08:59:01;;;;;;;1.50;0.77;;;19.80;60.00;;;;;;5384478;26;20467;-91
2024/04/19 09:01:30;;;;;;;1.50;0.80;;;19.90;60.20;;;;;;5384448;26;20498;-91
2024/04/19 09:03:58;;;;;;;1.40;0.73;;;19.80;60.00;;;;;;5384490;26;20571;-91
2024/04/19 09:06:30;;;;;;;2.20;0.90;;;19.80;60.10;;;;;;5384169;26;20617;-91
2024/04/19 09:08:59;;;;;;;1.80;1.03;;;19.90;60.20;;;;;;5384183;26;20456;-91
2024/04/19 09:11:27;;;;;;;1.60;0.80;;;19.80;60.10;;;;;;5384140;26;20531;-91
2024/04/19 09:13:56;;;;;;;1.40;0.70;;;19.80;60.10;;;;;;5383948;26;20447;-90
2024/04/19 09:16:24;;;;;;;1.67;1.00;;;19.90;60.20;;;;;;5383585;26;20451;-91
2024/04/19 09:18:53;;;;;;;1.63;1.00;;;19.80;60.10;;;;;;5383883;26;20504;-90
2024/04/19 09:21:22;;;;;;;1.53;0.80;;;19.80;60.10;;;;;;5383499;26;21069;-91
2024/04/19 09:23:54;;;;;;;1.50;0.90;;;19.90;60.20;;;;;;5383885;26;20464;-90
2024/04/19 09:26:23;;;;;;;1.60;1.10;;;19.80;60.10;;;;;;5383876;26;20926;-91
2024/04/19 09:28:53;;;;;;;1.70;1.00;;;19.80;60.10;;;;;;5383618;26;21077;-91
2024/04/19 09:31:22;;;;;;;1.50;0.90;;;19.80;60.10;;;;;;5383341;26;21037;-91
2024/04/19 09:33:53;;;;;;;1.50;0.90;;;19.90;60.20;;;;;;5383457;26;20459;-92
2024/04/19 09:36:22;;;;;;;1.50;0.83;;;19.80;60.10;;;;;;5388602;26;20456;-91
2024/04/19 09:38:54;;;;;;;1.60;0.90;;;19.80;60.20;;;;;;5406261;26;20533;-89
2024/04/19 09:41:27;;;;;;;1.50;0.90;;;19.80;60.20;;;;;;5400866;26;20494;-91
2024/04/19 09:43:58;;;;;;;1.60;0.90;;;19.80;60.20;;;;;;5383781;26;20482;-91
2024/04/19 09:46:29;;;;;;;1.60;0.80;;;19.80;60.20;;;;;;5382969;26;20512;-92
2024/04/19 09:49:01;;;;;;;1.90;1.20;;;19.90;60.30;;;;;;5383398;26;20621;-91
2024/04/19 09:51:36;;;;;;;1.43;0.80;;;19.80;60.30;;;;;;5383054;26;20455;-92
2024/04/19 09:54:10;;;;;;;1.40;0.80;;;19.80;60.20;;;;;;5382978;26;20456;-91
2024/04/19 09:56:46;;;;;;;1.50;0.80;;;19.90;60.40;;;;;;5382641;26;20439;-91
2024/04/19 09:59:15;;;;;;;1.70;0.90;;;19.90;60.40;;;;;;5382644;26;20436;-91
2024/04/19 10:01:44;;;;;;;1.60;0.87;;;19.80;60.30;;;;;;5382412;26;20452;-91
2024/04/19 10:04:13;;;;;;;1.60;0.90;;;19.80;60.30;;;;;;5382883;26;20444;-91
2024/04/19 10:06:43;;;;;;;1.50;1.00;;;19.90;60.40;;;;;;5382384;26;20586;-91
2024/04/19 10:09:16;;;;;;;3.00;1.10;;;19.80;60.30;;;;;;5382263;26;20553;-91
2024/04/19 10:11:45;;;;;;;1.40;0.80;;;19.80;60.30;;;;;;5382134;26;20565;-91
2024/04/19 10:14:14;;;;;;;1.50;0.80;;;19.80;60.30;;;;;;5382670;26;20499;-91
2024/04/19 10:16:43;;;;;;;1.50;0.83;;;19.80;60.30;;;;;;5382284;26;20559;-90
2024/04/19 10:19:14;;;;;;;1.50;0.90;;;19.80;60.30;;;;;;5382251;26;20579;-90
2024/04/19 10:21:42;;;;;;;1.60;1.00;;;19.80;60.30;;;;;;5382386;26;20440;-91
2024/04/19 10:24:20;;;;;;;1.83;1.00;;;19.80;60.30;;;;;;5382092;26;20456;-91
2024/04/19 10:26:53;;;;;;;2.10;1.10;;;19.80;60.40;;;;;;5382617;26;20954;-91
2024/04/19 10:29:25;;;;;;;1.40;0.80;;;19.90;60.50;;;;;;5381913;26;20447;-91
2024/04/19 10:31:54;;;;;;;1.60;0.90;;;19.80;61.30;;;;;;5381999;26;20451;-91
2024/04/19 10:34:25;;;;;;;1.43;0.80;;;19.80;60.40;;;;;;5382014;26;20515;-90
2024/04/19 10:36:54;;;;;;;1.73;0.97;;;19.90;60.50;;;;;;5382100;26;20447;-91
2024/04/19 10:39:26;;;;;;;1.60;0.90;;;19.80;60.40;;;;;;5381906;26;20747;-90
2024/04/19 10:41:55;;;;;;;1.63;0.90;;;19.80;60.40;;;;;;5381979;26;21076;-91
2024/04/19 10:44:26;;;;;;;2.33;0.97;;;19.80;60.40;;;;;;5381983;26;20452;-90
2024/04/19 10:46:55;;;;;;;1.70;0.90;;;19.80;60.40;;;;;;5382082;26;20443;-91
2024/04/19 10:49:24;;;;;;;1.50;0.80;;;19.80;60.40;;;;;;5381717;26;20492;-91
2024/04/19 10:51:54;;;;;;;1.50;0.80;;;19.80;60.40;;;;;;5381559;26;20485;-91
2024/04/19 10:54:25;;;;;;;1.40;0.80;;;19.80;60.40;;;;;;5381901;26;20923;-89
2024/04/19 10:56:54;;;;;;;1.50;0.90;;;19.80;60.40;;;;;;5382039;26;20452;-91
2024/04/19 10:59:23;;;;;;;1.60;0.80;;;19.80;60.50;;;;;;5383325;26;20495;-91
2024/04/19 11:01:57;;;;;;;1.73;0.97;;;19.80;60.40;;;;;;5385531;26;20450;-90
2024/04/19 11:04:26;;;;;;;2.07;1.23;;;19.80;60.50;;;;;;5385961;26;20830;-91
2024/04/19 11:06:54;;;;;;;1.60;0.80;;;19.80;60.40;;;;;;5385320;26;20550;-91
2024/04/19 11:09:25;;;;;;;1.70;1.00;;;19.80;60.40;;;;;;5385323;26;20486;-91
2024/04/19 11:11:55;;;;;;;2.10;1.00;;;19.80;60.40;;;;;;5385090;26;20482;-91
2024/04/19 11:14:24;;;;;;;1.70;1.10;;;19.80;60.60;;;;;;5384919;26;20444;-91
2024/04/19 11:16:53;;;;;;;1.60;1.00;;;19.90;60.60;;;;;;5385161;26;20506;-91
2024/04/19 11:19:21;;;;;;;1.50;0.90;;;19.90;60.60;;;;;;5384903;26;20577;-90
2024/04/19 11:21:48;;;;;;;1.70;0.90;;;19.90;60.60;;;;;;5384900;26;20490;-91
2024/04/19 11:24:19;;;;;;;1.70;0.87;;;19.80;60.60;;;;;;5384919;26;20550;-91
2024/04/19 11:26:51;;;;;;;1.40;0.70;;;19.80;60.80;;;;;;5385084;26;20455;-91
2024/04/19 11:29:20;;;;;;;1.50;0.90;;;19.90;60.70;;;;;;5384616;26;20448;-91
2024/04/19 11:31:49;;;;;;;1.50;0.80;;;19.80;60.60;;;;;;5384646;26;20507;-91
2024/04/19 11:34:17;;;;;;;1.77;0.80;;;19.80;60.60;;;;;;5384989;26;20502;-90
2024/04/19 11:36:44;;;;;;;1.60;0.87;;;19.80;60.50;;;;;;5385537;26;20471;-91
2024/04/19 11:39:13;;;;;;;1.60;0.80;;;19.80;60.50;;;;;;5384962;26;20507;-92
2024/04/19 11:41:42;;;;;;;1.70;0.80;;;19.80;60.70;;;;;;5384614;26;20455;-91
2024/04/19 11:44:14;;;;;;;1.60;1.00;;;19.80;60.60;;;;;;5384663;26;20451;-91
2024/04/19 11:46:45;;;;;;;1.70;0.93;;;19.80;60.70;;;;;;5385036;26;20772;-91
2024/04/19 11:49:16;;;;;;;1.50;0.90;;;19.80;60.70;;;;;;5385255;26;20464;-92
2024/04/19 11:51:45;;;;;;;1.47;0.77;;;19.80;60.60;;;;;;5384624;26;20845;-91
2024/04/19 11:54:14;;;;;;;1.80;1.17;;;19.80;60.60;;;;;;5384848;26;20867;-93
2024/04/19 11:56:42;;;;;;;1.93;0.90;;;19.80;60.70;;;;;;5384351;26;20440;-92
2024/04/19 11:59:18;;;;;;;1.50;0.90;;;19.90;60.80;;;;;;5384900;26;20843;-90
2024/04/19 12:01:46;;;;;;;3.77;1.33;;;19.90;60.70;;;;;;5385789;26;20447;-92
2024/04/19 12:04:15;;;;;;;1.63;0.93;;;19.80;60.60;;;;;;5384579;26;20498;-92
2024/04/19 12:06:43;;;;;;;1.77;0.93;;;19.90;60.80;;;;;;5384654;26;20468;-92
2024/04/19 12:09:12;;;;;;;1.40;0.77;;;19.80;60.70;;;;;;5384328;26;20443;-92
2024/04/19 12:11:42;;;;;;;1.90;1.00;;;19.90;60.90;;;;;;5384826;26;20877;-93
2024/04/19 12:14:12;;;;;;;1.83;0.90;;;19.90;60.80;;;;;;5384667;26;20779;-93
2024/04/19 12:16:43;;;;;;;1.70;1.00;;;19.80;60.70;;;;;;5384420;26;20483;-92
2024/04/19 12:19:11;;;;;;;1.50;0.80;;;19.80;60.60;;;;;;5384719;26;20456;-93
2024/04/19 12:21:40;;;;;;;1.50;0.90;;;19.90;60.90;;;;;;5384434;26;20855;-91
2024/04/19 12:24:08;;;;;;;1.77;0.80;;;19.80;60.80;;;;;;5383930;26;20506;-91
2024/04/19 12:26:37;;;;;;;2.13;1.00;;;19.90;60.90;;;;;;5384470;26;20554;-92
2024/04/19 12:29:06;;;;;;;1.50;0.80;;;19.80;60.70;;;;;;5384894;26;20496;-91
2024/04/19 12:31:35;;;;;;;1.57;0.90;;;19.90;60.80;;;;;;5384019;26;20440;-92
2024/04/19 12:34:07;;;;;;;1.57;0.90;;;19.80;60.70;;;;;;5387165;26;20444;-91
2024/04/19 12:36:36;;;;;;;2.03;0.90;;;19.80;61.50;;;;;;5406891;26;20444;-90
2024/04/19 12:39:05;;;;;;;1.70;0.90;;;19.90;60.90;;;;;;5403801;26;20540;-92
2024/04/19 12:41:34;;;;;;;1.50;0.80;;;19.90;60.90;;;;;;5384161;26;20452;-91
2024/04/19 12:44:03;;;;;;;2.00;0.90;;;19.90;61.80;;;;;;5384014;26;20499;-90
2024/04/19 12:46:33;;;;;;;1.60;1.00;;;19.80;61.00;;;;;;5386661;26;20456;-91
2024/04/19 12:49:08;;;;;;;1.80;1.00;;;20.00;61.10;;;;;;5402218;26;21081;-91
2024/04/19 12:51:36;;;;;;;1.50;0.80;;;19.90;61.00;;;;;;5405772;26;20524;-89
2024/04/19 12:54:05;;;;;;;1.80;1.10;;;19.90;61.00;;;;;;5406377;26;20550;-90
2024/04/19 12:56:34;;;;;;;1.90;0.90;;;19.80;60.90;;;;;;5385234;26;20451;-91
2024/04/19 12:59:03;;;;;;;2.40;1.10;;;19.80;61.60;;;;;;5383797;26;20439;-91
2024/04/19 13:01:31;;;;;;;1.53;0.90;;;19.70;60.70;;;;;;5383930;26;20484;-91
2024/04/19 13:04:00;;;;;;;1.60;0.77;;;19.80;60.80;;;;;;5383857;26;20467;-91
2024/04/19 13:06:32;;;;;;;1.60;0.90;;;19.80;60.80;;;;;;5383480;26;20792;-91